Pagina principale
METAR-TAF:

METAR-TAF

Aeroporti :

Aeroporto di Berna

Berna, Svizzera

latitudine: 46-55N, longitudine: 007-30E, altezza: 505 m

Osservazione

Il bollettino è stato emesso 13 minuti fa, alle 13:50 UTC
Vento 5 kt da ovest
Temperature 5°C
Umidità 75%
Pressione 1016 hPa
Visibilità 10 km o più
nessuna nube inferiore a 1500 m e nessun cumulonembo

METAR: LSZB 061350Z 26005KT CAVOK 05/01 Q1016

Ora: 15:03 (14:03 UTC)

Previsione

Il bollettino è stato emesso 2 ore e 38 minuti fa, alle 11:25 UTC
Previsione valida dal 06 alle 12 UTC al 06 alle 21 UTC
Vento 1 kt da direzioni variabili
Visibilità 10 km o più
nessuna nube inferiore a 1500 m e nessun cumulonembo
Evoluzione graduale
dal 06 alle 18 UTC al 06 alle 21 UTC
Visibilità: 2000 m
banchi di nebbia

TAF: LSZB 061125Z 0612/0621 VRB01KT CAVOK BECMG 0618/0621 2000 BCFG NSC

Osservazioni e previsioni meteorologiche di più di 4000 aeroporti (messaggi METAR e TAF).

Le stazioni disponibili sono rappresentate dai dischi gialli e rossi sulla carta.

Puntare il mouse per vedere il nome della stazione.

Clicca sopra per visualizzare le osservazioni e previsioni meteorologiche.

Per cambiare la mappa : fare clic sui pulsanti verdi con una croce nera per ingrandire, il pulsante verde con un trattino per diminuire, o sulla freccia verde per le mappe adiacenti.


METAR-TAF: